CheckWX is a tool to help pilots better visualize weather data.  It is not intended as a substitute for an official pre-flight weather briefing.

11:33:51 UTC

DAUI METAR
In Salah Airport
In Salah, Algeria
Current

34 mins ago

DAUI 151100Z 04012KT CAVOK 34/04 Q1015
Observed
Oct-15 @ 11:00 UTC
Wind
  • 040° at 12 KTS
Visibility
10,000+ meters
Flight Rules
VFR
Cloud Levels
  • Clear skies
Temperature
34°C / 93°F
Dewpoint
C / 39°F
Humidity
15%
Altimeter
29.97" Hg
Pressure
1014.92 hPa
Previous

2 hours ago

DAUI 151000Z 06014KT CAVOK 32/05 Q1016
Observed
Oct-15 @ 10:00 UTC
Wind
  • 060° at 14 KTS
Visibility
10,000+ meters
Flight Rules
VFR
Cloud Levels
  • Clear skies
Temperature
32°C / 90°F
Dewpoint
C / 41°F
Humidity
18%
Altimeter
30" Hg
Pressure
1015.92 hPa
Previous

3 hours ago

DAUI 150900Z 07014KT CAVOK 31/06 Q1016
Observed
Oct-15 @ 09:00 UTC
Wind
  • 070° at 14 KTS
Visibility
10,000+ meters
Flight Rules
VFR
Cloud Levels
  • Clear skies
Temperature
31°C / 88°F
Dewpoint
C / 43°F
Humidity
21%
Altimeter
30" Hg
Pressure
1015.92 hPa